Time;durP1;ratioP1;P1;durP2;ratioP2;P2;SDS_P1;SDS_P2;PMS_P1;PMS_P2;Temp;Humidity;BMP_temperature;BMP_pressure;BME280_temperature;BME280_humidity;BME280_pressure;Samples;Min_cycle;Max_cycle;Signal;HPM_P1;HPM_P2
2023/01/26 00:01:18;;;;;;;31.55;12.35;;;3.30;98.50;;;;;;4936867;28;20330;-67
2023/01/26 00:03:44;;;;;;;31.15;13.30;;;3.30;98.50;;;;;;4932775;29;20106;-67
2023/01/26 00:06:13;;;;;;;25.10;10.85;;;3.40;98.50;;;;;;4932434;29;20452;-67
2023/01/26 00:08:45;;;;;;;35.42;13.07;;;3.40;98.50;;;;;;4937290;29;20035;-67
2023/01/26 00:11:13;;;;;;;29.17;11.73;;;3.40;98.40;;;;;;4930720;29;20047;-67
2023/01/26 00:13:39;;;;;;;28.63;11.38;;;3.40;98.30;;;;;;4936052;29;20501;-67
2023/01/26 00:16:12;;;;;;;27.83;11.35;;;3.40;98.30;;;;;;4936993;28;20043;-67
2023/01/26 00:18:39;;;;;;;27.75;11.27;;;3.40;98.40;;;;;;4938493;29;20043;-67
2023/01/26 00:21:07;;;;;;;29.20;11.40;;;3.30;98.30;;;;;;4941221;29;20039;-67
2023/01/26 00:23:35;;;;;;;32.65;12.15;;;3.40;98.40;;;;;;4936687;29;20031;-67
2023/01/26 00:26:01;;;;;;;37.45;12.90;;;3.40;98.30;;;;;;4934472;28;20039;-67
2023/01/26 00:28:28;;;;;;;24.55;11.43;;;3.40;98.30;;;;;;4936304;29;20052;-67
2023/01/26 00:31:00;;;;;;;26.50;11.73;;;3.40;98.20;;;;;;4926532;29;20072;-67
2023/01/26 00:33:27;;;;;;;33.45;11.85;;;3.40;98.10;;;;;;4919481;29;20776;-66
2023/01/26 00:35:54;;;;;;;26.35;10.43;;;3.30;98.20;;;;;;4942185;29;20024;-67
2023/01/26 00:38:20;;;;;;;31.83;12.23;;;3.30;98.30;;;;;;4935275;29;20042;-67
2023/01/26 00:40:45;;;;;;;27.42;11.20;;;3.30;98.50;;;;;;4935642;29;20039;-67
2023/01/26 00:43:12;;;;;;;29.70;12.38;;;3.30;98.40;;;;;;4925270;29;20038;-67
2023/01/26 00:45:38;;;;;;;24.67;10.00;;;3.30;98.50;;;;;;4938694;28;20035;-67
2023/01/26 00:48:04;;;;;;;22.88;10.13;;;3.30;98.50;;;;;;4934789;29;20034;-67
2023/01/26 00:50:30;;;;;;;30.98;10.93;;;3.30;98.60;;;;;;4916174;29;20055;-67
2023/01/26 00:52:56;;;;;;;25.38;10.40;;;3.40;98.50;;;;;;4935438;29;20515;-67
2023/01/26 00:55:23;;;;;;;23.27;9.20;;;3.30;98.00;;;;;;4932684;28;20040;-67
2023/01/26 00:57:49;;;;;;;27.80;10.07;;;3.30;97.70;;;;;;4939066;29;20042;-66
2023/01/26 01:00:16;;;;;;;23.63;9.40;;;3.30;97.80;;;;;;4937730;29;20677;-67
2023/01/26 01:02:43;;;;;;;26.15;11.25;;;3.30;98.00;;;;;;4934523;29;20054;-67
2023/01/26 01:05:10;;;;;;;27.25;10.32;;;3.20;98.00;;;;;;4934724;29;20067;-66
2023/01/26 01:07:36;;;;;;;26.38;9.90;;;3.20;97.80;;;;;;4937113;29;20146;-67
2023/01/26 01:10:02;;;;;;;28.35;9.85;;;3.20;98.00;;;;;;4937269;29;20786;-67
2023/01/26 01:12:27;;;;;;;23.80;10.45;;;3.20;98.00;;;;;;4916185;29;20740;-66
2023/01/26 01:14:53;;;;;;;26.00;10.55;;;3.20;98.30;;;;;;4935116;29;20027;-67
2023/01/26 01:17:19;;;;;;;28.33;11.00;;;3.20;98.20;;;;;;4924419;29;20146;-66
2023/01/26 01:19:45;;;;;;;36.08;12.13;;;3.20;98.00;;;;;;4915471;29;20055;-67
2023/01/26 01:22:11;;;;;;;26.92;10.73;;;3.20;98.10;;;;;;4920088;29;20046;-67
2023/01/26 01:24:37;;;;;;;25.73;10.73;;;3.10;97.90;;;;;;4919487;28;22070;-67
2023/01/26 01:27:03;;;;;;;27.60;10.48;;;3.10;98.10;;;;;;4923226;29;20507;-67
2023/01/26 01:29:29;;;;;;;25.00;10.32;;;3.10;98.20;;;;;;4933551;29;20535;-67
2023/01/26 01:31:55;;;;;;;25.92;9.57;;;3.00;98.10;;;;;;4932922;29;20609;-66
2023/01/26 01:34:22;;;;;;;27.50;10.60;;;3.00;98.30;;;;;;4922356;29;20051;-66
2023/01/26 01:36:47;;;;;;;28.08;11.40;;;3.00;98.40;;;;;;4935269;28;20028;-67
2023/01/26 01:39:13;;;;;;;29.95;11.10;;;3.10;98.30;;;;;;4923585;29;20555;-67
2023/01/26 01:41:39;;;;;;;26.30;10.32;;;3.10;98.40;;;;;;4935650;29;20591;-67
2023/01/26 01:44:19;;;;;;;23.90;10.23;;;3.10;98.40;;;;;;4933545;29;20562;-67
2023/01/26 01:46:56;;;;;;;24.63;10.00;;;3.10;98.50;;;;;;4921854;29;20035;-66
2023/01/26 01:49:28;;;;;;;30.20;11.27;;;3.10;98.50;;;;;;4918088;29;20061;-67
2023/01/26 01:51:57;;;;;;;23.13;9.80;;;3.10;98.30;;;;;;4935392;29;20515;-67
2023/01/26 01:54:33;;;;;;;25.10;9.88;;;3.10;98.30;;;;;;4935737;29;20031;-66
2023/01/26 01:57:04;;;;;;;24.55;8.82;;;3.10;98.50;;;;;;4934973;28;20762;-67
2023/01/26 01:59:31;;;;;;;25.98;10.00;;;3.00;98.60;;;;;;4920876;29;20627;-67
2023/01/26 02:01:57;;;;;;;24.40;10.05;;;3.10;98.70;;;;;;4924283;29;20035;-67
2023/01/26 02:04:24;;;;;;;19.77;7.78;;;3.00;98.70;;;;;;4935511;29;20032;-67
2023/01/26 02:06:52;;;;;;;26.05;9.10;;;3.10;98.70;;;;;;4937761;28;20055;-66
2023/01/26 02:12:13;;;;;;;22.10;7.97;;;3.10;98.60;;;;;;4933679;29;20746;-67
2023/01/26 02:14:40;;;;;;;21.33;8.45;;;3.10;98.60;;;;;;4942461;28;20039;-67
2023/01/26 02:17:07;;;;;;;23.25;8.07;;;3.10;98.70;;;;;;4933132;29;20040;-67
2023/01/26 02:20:25;;;;;;;19.90;7.90;;;3.20;98.60;;;;;;4933812;29;20027;-66
2023/01/26 02:23:06;;;;;;;20.52;8.00;;;3.20;98.40;;;;;;4869904;29;20032;-66
2023/01/26 02:25:41;;;;;;;20.63;7.75;;;3.30;97.90;;;;;;4885335;29;20068;-66
2023/01/26 02:28:07;;;;;;;21.67;8.07;;;3.30;97.50;;;;;;4921445;29;20940;-66
2023/01/26 02:30:33;;;;;;;20.27;7.20;;;3.20;97.50;;;;;;4936131;29;20035;-67
2023/01/26 02:32:59;;;;;;;19.75;7.45;;;3.10;98.00;;;;;;4934331;29;20119;-66
2023/01/26 02:35:24;;;;;;;18.20;8.23;;;3.10;97.70;;;;;;4918200;29;20142;-66
2023/01/26 02:37:51;;;;;;;19.13;7.50;;;3.00;98.00;;;;;;4915324;29;20515;-67
2023/01/26 02:40:38;;;;;;;15.68;6.90;;;3.00;97.90;;;;;;4917099;29;20023;-66
2023/01/26 02:43:03;;;;;;;;;;;3.10;98.00;;;;;;4923730;29;20030;-67
2023/01/26 02:45:31;;;;;;;19.53;7.60;;;3.10;97.70;;;;;;4918704;29;19921;-67
2023/01/26 02:47:58;;;;;;;15.32;6.97;;;3.10;97.90;;;;;;4916979;29;20110;-66
2023/01/26 02:50:24;;;;;;;18.35;8.00;;;3.10;97.90;;;;;;4921018;29;20467;-67
2023/01/26 02:52:50;;;;;;;21.63;7.97;;;3.10;97.90;;;;;;4920006;29;20063;-67
2023/01/26 02:55:23;;;;;;;21.15;8.57;;;3.20;97.80;;;;;;4921938;29;20085;-66
2023/01/26 02:58:03;;;;;;;22.42;8.32;;;3.20;97.90;;;;;;4935261;29;20064;-66
2023/01/26 03:00:36;;;;;;;19.17;7.28;;;3.20;98.00;;;;;;4915898;29;20046;-67
2023/01/26 03:03:12;;;;;;;20.70;7.68;;;3.20;97.60;;;;;;4916059;29;20652;-67
2023/01/26 03:05:38;;;;;;;16.73;6.90;;;3.10;97.70;;;;;;4936317;29;20569;-66
2023/01/26 03:08:05;;;;;;;19.00;7.15;;;3.00;98.00;;;;;;4935816;29;20046;-67
2023/01/26 03:10:34;;;;;;;17.80;7.55;;;3.00;98.20;;;;;;4916222;29;20424;-67
2023/01/26 03:13:00;;;;;;;22.33;8.73;;;3.00;98.30;;;;;;4916007;29;20039;-67
2023/01/26 03:15:41;;;;;;;19.92;7.07;;;3.10;98.30;;;;;;4934644;28;20045;-65
2023/01/26 03:29:11;;;;;;;17.70;6.35;;;3.00;98.10;;;;;;4935645;29;20047;-66
2023/01/26 03:31:39;;;;;;;18.23;7.15;;;3.10;98.00;;;;;;4918991;29;20031;-66
2023/01/26 03:34:04;;;;;;;18.95;7.80;;;3.10;97.90;;;;;;4931259;29;20452;-66
2023/01/26 03:36:30;;;;;;;18.42;7.78;;;3.10;97.70;;;;;;4922595;29;20071;-66
2023/01/26 03:38:57;;;;;;;17.00;7.03;;;3.10;97.70;;;;;;4915464;29;20082;-67
2023/01/26 03:57:54;;;;;;;21.33;7.45;;;3.00;98.00;;;;;;4913880;29;20054;-67
2023/01/26 04:00:20;;;;;;;19.25;7.35;;;2.90;98.00;;;;;;4929162;29;20275;-67
2023/01/26 04:08:22;;;;;;;19.45;8.10;;;2.90;98.70;;;;;;4929996;29;20070;-66
2023/01/26 04:10:50;;;;;;;20.13;8.45;;;2.90;98.30;;;;;;4916874;29;20043;-67
2023/01/26 04:21:39;;;;;;;20.85;7.78;;;2.80;98.70;;;;;;4933126;29;20024;-66
2023/01/26 04:24:21;;;;;;;17.92;7.60;;;2.70;98.80;;;;;;4930590;29;20031;-66
2023/01/26 04:26:48;;;;;;;18.67;7.22;;;2.80;99.00;;;;;;4933220;29;20263;-67
2023/01/26 04:29:18;;;;;;;17.58;6.68;;;2.80;99.00;;;;;;4929352;29;20527;-67
2023/01/26 04:31:45;;;;;;;16.98;7.03;;;2.80;98.70;;;;;;4918810;29;20043;-67
2023/01/26 04:34:15;;;;;;;15.50;6.30;;;2.90;98.90;;;;;;4935338;29;20035;-66
2023/01/26 04:36:41;;;;;;;15.02;7.28;;;2.90;98.80;;;;;;4917697;29;20766;-67
2023/01/26 04:39:08;;;;;;;16.83;6.55;;;2.90;98.40;;;;;;4932773;29;20029;-66
2023/01/26 04:41:36;;;;;;;18.55;6.97;;;3.00;98.40;;;;;;4932037;29;20038;-66
2023/01/26 04:44:08;;;;;;;15.93;6.85;;;3.00;98.30;;;;;;4933526;29;20171;-66
2023/01/26 04:46:34;;;;;;;14.95;6.63;;;3.00;97.80;;;;;;4918226;29;20869;-67
2023/01/26 04:49:01;;;;;;;16.70;6.68;;;3.00;97.80;;;;;;4931904;29;20035;-67
2023/01/26 04:51:28;;;;;;;19.67;6.63;;;3.00;97.90;;;;;;4931094;29;20579;-67
2023/01/26 04:53:55;;;;;;;15.85;7.35;;;3.00;97.90;;;;;;4930761;29;20046;-66
2023/01/26 04:56:21;;;;;;;18.42;7.22;;;3.00;97.90;;;;;;4921742;29;20102;-66
2023/01/26 04:58:49;;;;;;;16.55;6.45;;;3.00;97.50;;;;;;4921125;29;20063;-67
2023/01/26 05:01:16;;;;;;;17.55;7.45;;;3.00;97.50;;;;;;4917383;29;20055;-67
2023/01/26 05:03:42;;;;;;;15.93;6.32;;;3.00;97.60;;;;;;4934834;29;20055;-67
2023/01/26 05:06:08;;;;;;;20.60;7.85;;;3.00;97.60;;;;;;4938688;29;20035;-66
2023/01/26 05:08:35;;;;;;;21.48;7.50;;;3.00;97.40;;;;;;4918890;29;20049;-67
2023/01/26 05:11:01;;;;;;;21.20;8.45;;;3.00;97.80;;;;;;4916118;29;20036;-67
2023/01/26 05:13:46;;;;;;;17.65;7.55;;;3.00;97.70;;;;;;4917795;29;20032;-66
2023/01/26 05:16:34;;;;;;;18.60;8.10;;;3.00;97.60;;;;;;4935129;28;20089;-67
2023/01/26 05:19:05;;;;;;;16.73;6.78;;;3.00;97.90;;;;;;4936497;29;20067;-66
2023/01/26 05:21:40;;;;;;;16.02;7.07;;;3.00;98.00;;;;;;4925412;29;20055;-66
2023/01/26 05:24:07;;;;;;;12.73;6.15;;;3.00;98.10;;;;;;4935930;29;20127;-67
2023/01/26 05:29:50;;;;;;;20.27;8.23;;;3.00;97.70;;;;;;4933468;29;20032;-66
2023/01/26 05:32:17;;;;;;;17.60;6.70;;;3.00;97.70;;;;;;4915657;29;20456;-66
2023/01/26 05:34:44;;;;;;;16.63;7.55;;;3.00;97.70;;;;;;4915242;29;20039;-66
2023/01/26 05:37:10;;;;;;;19.20;7.50;;;3.00;97.80;;;;;;4922073;29;20051;-66
2023/01/26 05:39:40;;;;;;;14.85;6.45;;;3.00;97.80;;;;;;4935927;29;20031;-66
2023/01/26 05:42:06;;;;;;;16.20;5.75;;;3.00;97.80;;;;;;4924467;29;20035;-66
2023/01/26 05:44:55;;;;;;;18.00;7.10;;;2.90;97.90;;;;;;4939673;29;20043;-67
2023/01/26 05:47:21;;;;;;;15.60;6.45;;;2.90;97.90;;;;;;4933287;29;20039;-66
2023/01/26 05:49:49;;;;;;;18.23;6.28;;;3.00;97.90;;;;;;4915851;29;20116;-67
2023/01/26 05:52:21;;;;;;;16.77;6.97;;;3.00;98.00;;;;;;4916879;29;20039;-66
2023/01/26 05:54:48;;;;;;;16.17;6.63;;;2.90;97.60;;;;;;4933214;28;20106;-66
2023/01/26 05:57:16;;;;;;;14.70;6.95;;;2.90;97.60;;;;;;4930491;29;20024;-66
2023/01/26 05:59:47;;;;;;;14.23;6.78;;;2.90;97.70;;;;;;4923920;29;20059;-66
2023/01/26 06:02:13;;;;;;;15.35;7.55;;;2.90;97.80;;;;;;4921218;29;20035;-66
2023/01/26 06:04:42;;;;;;;15.77;6.35;;;2.90;97.60;;;;;;4923119;29;20416;-66
2023/01/26 06:07:09;;;;;;;13.32;6.18;;;2.90;97.70;;;;;;4920702;29;20035;-66
2023/01/26 06:09:44;;;;;;;15.27;5.28;;;2.90;97.60;;;;;;4918758;29;20061;-67
2023/01/26 06:12:34;;;;;;;13.63;6.10;;;2.90;97.70;;;;;;4939719;28;20086;-66
2023/01/26 06:15:06;;;;;;;13.63;6.13;;;2.90;97.70;;;;;;4938657;28;20042;-66
2023/01/26 06:17:41;;;;;;;11.82;5.13;;;2.90;97.70;;;;;;4933102;28;20055;-67
2023/01/26 06:20:09;;;;;;;15.18;6.30;;;2.90;97.60;;;;;;4925069;29;20027;-67
2023/01/26 06:22:36;;;;;;;12.15;5.47;;;2.90;97.70;;;;;;4919493;28;20035;-66
2023/01/26 06:25:02;;;;;;;12.98;6.35;;;2.90;97.60;;;;;;4918235;29;20066;-66
2023/01/26 06:27:28;;;;;;;14.73;6.53;;;2.90;97.30;;;;;;4923636;28;20073;-66
2023/01/26 06:29:54;;;;;;;13.30;6.68;;;2.90;97.30;;;;;;4924003;29;20031;-66
2023/01/26 06:32:21;;;;;;;14.40;6.28;;;2.90;97.30;;;;;;4930422;29;20407;-66
2023/01/26 06:34:52;;;;;;;14.95;6.78;;;2.70;97.00;;;;;;4928359;29;20034;-67
2023/01/26 06:37:19;;;;;;;14.90;6.50;;;2.70;97.40;;;;;;4921586;29;20118;-66
2023/01/26 06:39:45;;;;;;;11.45;5.35;;;2.70;97.50;;;;;;4926680;29;20138;-65
2023/01/26 06:42:11;;;;;;;11.45;5.50;;;2.70;97.70;;;;;;4928021;28;20113;-67
2023/01/26 06:44:37;;;;;;;13.55;6.15;;;2.70;97.70;;;;;;4923135;28;20019;-67
2023/01/26 06:47:05;;;;;;;18.00;8.68;;;2.70;97.80;;;;;;4939635;28;20570;-67
2023/01/26 06:49:31;;;;;;;14.73;6.43;;;2.80;97.70;;;;;;4938141;28;20175;-67
2023/01/26 06:52:26;;;;;;;16.45;7.05;;;2.80;97.70;;;;;;4938101;28;20027;-65
2023/01/26 06:54:58;;;;;;;13.05;6.45;;;2.80;97.60;;;;;;4920864;29;20102;-67
2023/01/26 06:57:45;;;;;;;12.45;6.00;;;2.90;97.20;;;;;;4922881;29;20613;-66
2023/01/26 07:00:31;;;;;;;13.68;6.55;;;2.90;97.10;;;;;;4923341;29;20068;-68
2023/01/26 07:03:12;;;;;;;11.50;5.72;;;2.90;97.00;;;;;;4937236;28;20756;-66
2023/01/26 07:05:37;;;;;;;11.60;5.85;;;2.90;96.90;;;;;;4933091;28;20031;-66
2023/01/26 07:08:05;;;;;;;12.07;5.93;;;2.80;96.90;;;;;;4938001;28;20082;-68
2023/01/26 07:10:31;;;;;;;14.45;7.68;;;2.90;97.00;;;;;;4933929;28;20476;-67
2023/01/26 07:12:56;;;;;;;13.85;7.20;;;2.90;97.20;;;;;;4928358;28;20039;-68
2023/01/26 07:15:22;;;;;;;24.67;12.18;;;2.90;97.00;;;;;;4934575;28;20035;-68
2023/01/26 07:17:48;;;;;;;21.70;12.75;;;2.90;96.80;;;;;;4935693;29;20488;-67
2023/01/26 07:20:14;;;;;;;36.63;22.20;;;2.90;96.70;;;;;;4935391;29;20034;-66
2023/01/26 07:22:40;;;;;;;22.15;11.90;;;2.80;96.80;;;;;;4935433;28;20530;-66
2023/01/26 07:25:06;;;;;;;28.92;17.98;;;2.80;96.90;;;;;;4934397;28;20115;-66
2023/01/26 07:27:31;;;;;;;20.60;9.80;;;2.70;96.60;;;;;;4937007;28;20066;-67
2023/01/26 07:29:57;;;;;;;13.48;6.85;;;2.70;96.80;;;;;;4936823;29;20110;-66
2023/01/26 07:32:23;;;;;;;16.27;7.15;;;2.70;96.80;;;;;;4933940;28;20070;-67
2023/01/26 07:34:49;;;;;;;14.55;6.43;;;2.60;97.00;;;;;;4932988;28;20040;-67
2023/01/26 07:37:15;;;;;;;12.90;6.47;;;2.60;96.80;;;;;;4937773;28;20038;-67
2023/01/26 07:39:41;;;;;;;20.45;8.48;;;2.60;96.80;;;;;;4938065;28;20024;-67
2023/01/26 07:42:09;;;;;;;15.20;6.82;;;2.60;96.90;;;;;;4936642;28;20451;-67
2023/01/26 07:44:58;;;;;;;12.45;6.10;;;2.60;97.20;;;;;;4921545;29;20035;-66
2023/01/26 07:47:24;;;;;;;11.60;5.63;;;2.60;97.00;;;;;;4936977;28;20776;-67
2023/01/26 07:49:50;;;;;;;14.05;5.95;;;2.50;97.10;;;;;;4932194;28;20035;-68
2023/01/26 07:52:16;;;;;;;14.18;6.00;;;2.60;97.40;;;;;;4937521;29;20522;-68
2023/01/26 07:54:42;;;;;;;12.85;5.47;;;2.60;97.30;;;;;;4938212;28;20043;-69
2023/01/26 07:57:07;;;;;;;11.13;5.65;;;2.60;97.40;;;;;;4936993;29;20042;-68
2023/01/26 07:59:33;;;;;;;13.75;6.45;;;2.70;97.20;;;;;;4937565;28;20098;-67
2023/01/26 08:01:59;;;;;;;12.85;5.68;;;2.70;96.90;;;;;;4935844;29;20020;-67
2023/01/26 08:04:25;;;;;;;11.95;6.03;;;2.70;97.00;;;;;;4922092;29;20040;-68
2023/01/26 08:06:51;;;;;;;15.80;6.82;;;2.70;96.90;;;;;;4940647;28;20047;-67
2023/01/26 08:09:17;;;;;;;11.60;5.68;;;2.70;96.90;;;;;;4939338;28;20482;-66
2023/01/26 08:11:43;;;;;;;12.63;6.10;;;2.70;96.40;;;;;;4936208;28;20047;-68
2023/01/26 08:14:09;;;;;;;40.85;15.77;;;2.60;96.80;;;;;;4938506;29;20075;-67
2023/01/26 08:16:34;;;;;;;13.75;6.45;;;2.70;96.70;;;;;;4940212;28;20051;-66
2023/01/26 08:19:01;;;;;;;23.92;10.80;;;2.80;96.60;;;;;;4937370;28;20039;-68
2023/01/26 08:21:27;;;;;;;34.17;13.20;;;2.70;96.30;;;;;;4936590;28;20028;-69
2023/01/26 08:23:54;;;;;;;38.70;13.98;;;2.60;96.50;;;;;;4922622;29;20624;-68
2023/01/26 08:26:20;;;;;;;31.88;12.77;;;2.60;96.70;;;;;;4933240;28;20044;-68
2023/01/26 08:28:47;;;;;;;30.48;11.85;;;2.70;97.00;;;;;;4936432;28;20039;-68
2023/01/26 08:31:17;;;;;;;44.53;16.10;;;2.70;96.80;;;;;;4928683;28;20039;-68
2023/01/26 08:33:43;;;;;;;24.10;8.93;;;2.70;96.80;;;;;;4934127;28;20039;-68
2023/01/26 08:36:14;;;;;;;17.23;6.95;;;2.70;97.00;;;;;;4938805;28;20037;-67
2023/01/26 08:38:40;;;;;;;13.13;6.05;;;2.70;96.90;;;;;;4935318;28;20027;-69
2023/01/26 08:41:07;;;;;;;18.20;8.32;;;2.80;97.00;;;;;;4939544;29;20121;-68
2023/01/26 08:43:33;;;;;;;14.30;6.38;;;2.70;97.00;;;;;;4942320;28;20047;-68
2023/01/26 08:45:59;;;;;;;17.92;8.55;;;2.80;96.90;;;;;;4938440;28;20035;-67
2023/01/26 08:48:25;;;;;;;21.38;8.68;;;2.80;96.90;;;;;;4939071;28;20046;-68
2023/01/26 08:50:55;;;;;;;14.43;7.13;;;2.80;96.70;;;;;;4939683;28;20431;-68
2023/01/26 08:53:21;;;;;;;14.45;6.35;;;2.70;96.90;;;;;;4939115;28;20074;-71
2023/01/26 08:55:47;;;;;;;14.07;7.68;;;2.70;96.90;;;;;;4938707;28;20042;-68
2023/01/26 08:58:13;;;;;;;15.07;7.07;;;2.70;97.10;;;;;;4933125;28;20035;-67
2023/01/26 09:00:39;;;;;;;11.45;6.07;;;2.70;97.20;;;;;;4938208;28;20058;-68
2023/01/26 09:03:06;;;;;;;14.85;6.75;;;2.70;97.40;;;;;;4937711;28;20114;-69
2023/01/26 09:05:35;;;;;;;20.85;8.52;;;2.80;97.00;;;;;;4937784;28;20042;-65
2023/01/26 09:08:01;;;;;;;15.15;6.57;;;2.80;97.00;;;;;;4939381;28;20071;-68
2023/01/26 09:10:27;;;;;;;19.42;7.53;;;2.80;97.10;;;;;;4936485;28;20043;-67
2023/01/26 09:12:53;;;;;;;23.90;8.55;;;2.80;97.20;;;;;;4941709;28;20039;-67
2023/01/26 09:15:19;;;;;;;16.33;6.45;;;2.90;96.90;;;;;;4936452;28;20110;-66
2023/01/26 09:17:48;;;;;;;13.50;6.28;;;2.80;96.90;;;;;;4941889;28;20818;-68
2023/01/26 09:20:14;;;;;;;11.50;5.82;;;2.90;96.90;;;;;;4939781;28;20031;-67
2023/01/26 09:22:40;;;;;;;11.23;5.57;;;2.90;96.70;;;;;;4936050;28;20822;-67
2023/01/26 09:25:06;;;;;;;10.30;4.70;;;2.90;96.40;;;;;;4936533;28;20044;-67
2023/01/26 09:27:32;;;;;;;9.23;5.00;;;2.90;96.60;;;;;;4937095;28;20035;-67
2023/01/26 09:29:58;;;;;;;9.05;4.63;;;2.90;96.50;;;;;;4939770;28;20121;-66
2023/01/26 09:32:24;;;;;;;7.10;3.95;;;3.00;96.60;;;;;;4940636;28;20039;-67
2023/01/26 09:34:50;;;;;;;8.57;4.10;;;3.00;96.20;;;;;;4936208;28;20087;-65
2023/01/26 09:37:16;;;;;;;8.88;4.30;;;3.10;96.10;;;;;;4937587;28;20027;-67
2023/01/26 09:39:42;;;;;;;8.73;4.53;;;3.20;95.90;;;;;;4937471;28;20735;-66
2023/01/26 09:42:53;;;;;;;5.45;3.35;;;3.20;95.50;;;;;;4941822;28;20118;-67
2023/01/26 09:45:33;;;;;;;8.90;4.18;;;3.20;95.30;;;;;;4878028;29;20037;-67
2023/01/26 09:48:10;;;;;;;8.20;4.55;;;3.20;94.90;;;;;;4933874;28;20673;-67
2023/01/26 09:50:54;;;;;;;10.45;5.60;;;3.20;94.90;;;;;;4935039;29;20039;-66
2023/01/26 09:53:58;;;;;;;10.90;5.57;;;3.20;95.30;;;;;;4939521;28;20035;-66
2023/01/26 09:56:31;;;;;;;11.60;5.88;;;3.20;95.30;;;;;;4895944;29;20175;-67
2023/01/26 09:59:05;;;;;;;10.40;5.20;;;3.20;95.40;;;;;;4938867;28;20076;-67
2023/01/26 10:01:38;;;;;;;9.80;5.40;;;3.10;95.60;;;;;;4937459;28;20031;-67
2023/01/26 10:04:14;;;;;;;11.50;5.45;;;3.10;95.90;;;;;;4935959;28;20113;-67
2023/01/26 10:06:41;;;;;;;22.73;15.05;;;3.20;96.00;;;;;;4935178;28;20490;-67
2023/01/26 10:09:25;;;;;;;11.55;6.60;;;3.20;96.00;;;;;;4940503;28;20037;-67
2023/01/26 10:12:00;;;;;;;9.25;5.95;;;3.20;95.30;;;;;;4934764;28;20067;-67
2023/01/26 10:14:44;;;;;;;13.40;6.53;;;3.20;95.40;;;;;;4938931;28;20035;-68
2023/01/26 10:17:18;;;;;;;9.50;5.35;;;3.20;95.60;;;;;;4940656;28;20039;-67
2023/01/26 10:19:53;;;;;;;10.35;5.03;;;3.20;95.40;;;;;;4935917;28;20043;-68
2023/01/26 10:22:33;;;;;;;10.07;4.18;;;3.10;94.90;;;;;;4938329;28;20035;-68
2023/01/26 10:24:59;;;;;;;10.35;5.18;;;3.10;95.30;;;;;;4932739;28;20805;-64
2023/01/26 10:27:26;;;;;;;6.90;4.13;;;3.20;95.20;;;;;;4935335;28;20039;-68
2023/01/26 10:29:52;;;;;;;6.22;3.70;;;3.20;95.30;;;;;;4938314;28;20038;-72
2023/01/26 10:32:18;;;;;;;5.38;3.20;;;3.20;95.10;;;;;;4939341;28;20415;-69
2023/01/26 10:34:48;;;;;;;6.70;4.03;;;3.20;94.80;;;;;;4938675;28;20142;-71
2023/01/26 10:37:28;;;;;;;8.18;3.53;;;3.10;95.10;;;;;;4939592;28;20900;-70
2023/01/26 10:39:59;;;;;;;5.97;3.78;;;3.20;95.20;;;;;;4944869;28;20036;-70
2023/01/26 10:42:30;;;;;;;8.32;4.70;;;3.30;94.70;;;;;;4943453;28;20039;-68
2023/01/26 10:44:57;;;;;;;7.50;4.30;;;3.20;94.30;;;;;;4939938;28;20035;-71
2023/01/26 10:47:24;;;;;;;5.35;3.13;;;3.30;94.30;;;;;;4936363;28;20328;-70
2023/01/26 10:49:50;;;;;;;6.53;3.42;;;3.30;94.50;;;;;;4938545;28;20035;-73
2023/01/26 10:52:20;;;;;;;5.82;3.65;;;3.40;94.20;;;;;;4937800;29;20439;-73
2023/01/26 10:54:47;;;;;;;5.80;3.28;;;3.50;94.00;;;;;;4936274;28;20526;-72
2023/01/26 10:57:24;;;;;;;5.63;2.92;;;3.50;93.90;;;;;;4939938;28;20488;-71
2023/01/26 10:59:54;;;;;;;5.07;3.40;;;3.60;93.30;;;;;;4934873;28;20035;-72
2023/01/26 11:02:27;;;;;;;4.55;3.40;;;3.50;93.10;;;;;;4934854;28;20090;-72
2023/01/26 11:05:08;;;;;;;6.65;3.30;;;3.50;93.30;;;;;;4935413;28;20066;-72
2023/01/26 11:07:37;;;;;;;8.82;3.45;;;3.50;93.50;;;;;;4930557;28;20860;-71
2023/01/26 11:10:16;;;;;;;7.15;4.30;;;3.60;93.40;;;;;;4932452;28;20483;-72
2023/01/26 11:12:42;;;;;;;6.90;3.67;;;3.60;93.30;;;;;;4940338;28;20053;-73
2023/01/26 11:15:38;;;;;;;5.85;3.45;;;3.60;93.40;;;;;;4935862;29;20428;-74
2023/01/26 11:18:28;;;;;;;4.13;2.80;;;3.60;93.50;;;;;;4932012;28;20044;-72
2023/01/26 11:21:08;;;;;;;5.97;3.38;;;3.60;93.50;;;;;;4937897;28;20187;-73
2023/01/26 11:23:50;;;;;;;7.45;3.78;;;3.60;93.40;;;;;;4933956;28;20621;-72
2023/01/26 11:26:39;;;;;;;5.30;3.33;;;3.60;93.20;;;;;;4933769;28;20160;-75
2023/01/26 11:29:37;;;;;;;5.50;3.10;;;3.60;93.30;;;;;;4909326;29;20389;-73
2023/01/26 11:32:15;;;;;;;4.85;2.80;;;3.60;93.40;;;;;;4936770;28;20043;-66
2023/01/26 11:34:40;;;;;;;5.72;3.25;;;3.60;93.00;;;;;;4933149;28;20027;-70
2023/01/26 11:37:35;;;;;;;7.75;4.93;;;3.70;93.20;;;;;;4934447;28;20911;-73
2023/01/26 11:40:27;;;;;;;6.47;3.85;;;3.70;92.90;;;;;;4935355;29;20031;-72
2023/01/26 11:43:40;;;;;;;9.35;5.78;;;3.70;92.90;;;;;;4936335;29;20035;-72
2023/01/26 11:46:31;;;;;;;8.45;3.75;;;3.60;92.50;;;;;;4938542;28;20147;-72
2023/01/26 11:49:21;;;;;;;10.32;6.07;;;3.60;93.00;;;;;;4930770;28;20103;-74
2023/01/26 11:52:15;;;;;;;7.57;4.68;;;3.60;93.20;;;;;;4938840;29;20529;-74
2023/01/26 11:55:07;;;;;;;7.60;4.20;;;3.60;93.00;;;;;;4935886;28;20039;-73
2023/01/26 11:58:18;;;;;;;7.00;4.43;;;3.60;93.00;;;;;;4930049;28;20043;-74
2023/01/26 12:00:51;;;;;;;5.90;3.33;;;3.60;93.30;;;;;;4934585;28;20117;-72
2023/01/26 12:03:44;;;;;;;6.43;3.92;;;3.60;93.10;;;;;;4939336;28;20045;-73
2023/01/26 12:06:19;;;;;;;7.20;3.72;;;3.60;93.50;;;;;;4936535;28;20039;-73
2023/01/26 12:08:53;;;;;;;9.48;4.70;;;3.70;93.40;;;;;;4935645;29;20185;-67
2023/01/26 12:11:54;;;;;;;8.15;4.10;;;3.80;93.20;;;;;;4932631;28;20106;-72
2023/01/26 12:14:30;;;;;;;9.38;3.88;;;3.80;93.00;;;;;;4916565;28;20055;-74
2023/01/26 12:17:31;;;;;;;8.23;4.55;;;3.70;93.00;;;;;;4930797;28;20126;-75
2023/01/26 12:20:06;;;;;;;7.35;4.13;;;3.60;93.10;;;;;;4939385;28;20364;-68
2023/01/26 12:22:39;;;;;;;11.95;5.05;;;3.60;93.30;;;;;;4937875;28;20043;-73
2023/01/26 12:25:29;;;;;;;7.97;4.38;;;3.60;93.50;;;;;;4930547;28;20050;-75
2023/01/26 12:28:10;;;;;;;7.40;4.22;;;3.60;93.60;;;;;;4934055;28;20150;-75
2023/01/26 12:31:06;;;;;;;8.55;4.80;;;3.70;93.40;;;;;;4933562;28;20086;-75
2023/01/26 12:33:33;;;;;;;7.63;4.28;;;3.70;93.50;;;;;;4903245;28;20059;-74
2023/01/26 12:36:11;;;;;;;8.55;4.38;;;3.80;93.40;;;;;;4933384;28;20023;-74
2023/01/26 12:38:42;;;;;;;7.97;4.25;;;3.80;93.00;;;;;;4936267;28;20890;-72
2023/01/26 12:41:17;;;;;;;6.18;3.53;;;3.80;93.10;;;;;;4933523;28;20702;-73
2023/01/26 12:44:07;;;;;;;8.55;4.68;;;3.80;93.20;;;;;;4930543;29;20075;-71
2023/01/26 12:46:39;;;;;;;7.00;4.00;;;3.90;93.40;;;;;;4932345;28;20036;-71
2023/01/26 12:49:28;;;;;;;8.18;4.43;;;3.90;93.40;;;;;;4935456;28;20090;-71
2023/01/26 12:52:02;;;;;;;6.55;3.45;;;3.90;93.30;;;;;;4928319;28;20066;-72
2023/01/26 12:54:47;;;;;;;9.15;4.97;;;3.90;93.30;;;;;;4932885;28;20035;-71
2023/01/26 12:57:22;;;;;;;9.70;4.80;;;3.90;93.30;;;;;;4932941;29;20031;-73
2023/01/26 12:59:49;;;;;;;10.00;4.63;;;4.00;93.00;;;;;;4936527;28;20558;-72
2023/01/26 13:02:15;;;;;;;9.20;4.53;;;4.00;93.00;;;;;;4939412;28;20031;-72
2023/01/26 13:04:43;;;;;;;11.70;6.13;;;3.90;93.00;;;;;;4936045;28;20106;-72
2023/01/26 13:07:36;;;;;;;13.70;5.25;;;3.90;92.80;;;;;;4933332;28;20122;-71
2023/01/26 13:10:14;;;;;;;10.88;5.63;;;3.80;93.00;;;;;;4937861;28;20495;-74
2023/01/26 13:12:53;;;;;;;12.60;5.65;;;3.80;93.20;;;;;;4936140;29;20042;-73
2023/01/26 13:15:25;;;;;;;9.93;5.22;;;3.70;93.40;;;;;;4936657;28;20470;-74
2023/01/26 13:17:59;;;;;;;10.80;5.55;;;3.70;93.60;;;;;;4936037;28;20771;-74
2023/01/26 13:20:44;;;;;;;11.73;5.47;;;3.70;93.50;;;;;;4932416;28;20040;-71
2023/01/26 13:23:42;;;;;;;14.05;6.65;;;3.70;93.70;;;;;;4933856;28;20039;-73
2023/01/26 13:26:18;;;;;;;15.98;7.00;;;3.70;93.80;;;;;;4937164;28;20130;-74
2023/01/26 13:28:46;;;;;;;19.60;8.07;;;3.60;93.70;;;;;;4942719;28;20039;-72
2023/01/26 13:31:12;;;;;;;20.73;9.15;;;3.60;93.70;;;;;;4937247;28;20071;-71
2023/01/26 13:33:39;;;;;;;23.00;12.38;;;3.50;93.80;;;;;;4938610;28;20031;-73
2023/01/26 13:36:14;;;;;;;22.02;10.48;;;3.40;94.10;;;;;;4935240;28;20039;-74
2023/01/26 13:38:54;;;;;;;18.58;8.23;;;3.30;94.40;;;;;;4934133;28;20759;-73
2023/01/26 13:41:21;;;;;;;20.55;10.05;;;3.30;94.60;;;;;;4936738;28;20145;-72
2023/01/26 13:43:58;;;;;;;19.48;9.00;;;3.30;94.50;;;;;;4938237;29;20042;-69
2023/01/26 13:46:28;;;;;;;20.83;9.35;;;3.30;94.50;;;;;;4934740;28;20035;-71
2023/01/26 13:48:55;;;;;;;16.42;7.10;;;3.30;94.70;;;;;;4940303;28;20031;-69
2023/01/26 13:51:29;;;;;;;18.02;8.50;;;3.30;94.60;;;;;;4938850;28;20043;-69
2023/01/26 13:54:02;;;;;;;13.10;6.70;;;3.30;94.60;;;;;;4934536;28;20046;-74
2023/01/26 13:56:35;;;;;;;16.63;7.18;;;3.30;94.80;;;;;;4935920;28;20054;-65
2023/01/26 13:59:21;;;;;;;20.15;9.02;;;3.30;94.60;;;;;;4942003;28;20067;-71